Time;durP1;ratioP1;P1;durP2;ratioP2;P2;SDS_P1;SDS_P2;PMS_P1;PMS_P2;Temp;Humidity;BMP_temperature;BMP_pressure;BME280_temperature;BME280_humidity;BME280_pressure;Samples;Min_cycle;Max_cycle;Signal;HPM_P1;HPM_P2
2021/01/24 00:00:54;;;;;;;29.43;26.30;;;1.10;99.90;;;;;;5088928;27;20464;-74
2021/01/24 00:03:22;;;;;;;29.77;25.60;;;1.10;99.90;;;;;;5096238;28;20473;-73
2021/01/24 00:05:50;;;;;;;27.20;25.00;;;1.00;99.90;;;;;;5099729;28;21104;-74
2021/01/24 00:08:17;;;;;;;40.40;26.43;;;1.00;99.90;;;;;;5094421;28;20465;-75
2021/01/24 00:10:43;;;;;;;30.33;26.10;;;1.00;99.90;;;;;;5097263;28;20497;-71
2021/01/24 00:13:10;;;;;;;28.60;25.77;;;1.10;99.90;;;;;;5099971;28;20732;-73
2021/01/24 00:15:37;;;;;;;29.47;26.87;;;1.00;99.90;;;;;;5099551;27;20526;-74
2021/01/24 00:18:03;;;;;;;35.00;27.27;;;1.00;99.90;;;;;;5095756;28;20498;-73
2021/01/24 00:20:30;;;;;;;29.10;26.20;;;1.00;99.90;;;;;;5096420;28;20884;-74
2021/01/24 00:22:56;;;;;;;35.53;26.70;;;1.00;99.90;;;;;;5090425;27;20956;-73
2021/01/24 00:25:22;;;;;;;28.63;25.60;;;1.00;99.90;;;;;;5095427;27;20475;-73
2021/01/24 00:27:48;;;;;;;29.37;26.80;;;1.00;99.90;;;;;;5104147;27;20780;-72
2021/01/24 00:30:17;;;;;;;28.47;26.03;;;1.10;99.90;;;;;;5102121;27;21027;-75
2021/01/24 00:32:44;;;;;;;30.17;27.33;;;1.00;99.90;;;;;;5101210;28;20456;-75
2021/01/24 00:35:11;;;;;;;34.50;27.40;;;1.00;99.90;;;;;;5100017;27;20454;-72
2021/01/24 00:37:38;;;;;;;30.03;27.40;;;1.10;99.90;;;;;;5096635;28;21286;-74
2021/01/24 00:40:06;;;;;;;32.03;28.63;;;0.90;99.90;;;;;;5096554;28;20884;-73
2021/01/24 00:42:32;;;;;;;36.03;28.27;;;1.00;99.90;;;;;;5111082;27;20683;-74
2021/01/24 00:44:58;;;;;;;62.60;30.60;;;1.00;99.90;;;;;;5100215;28;20532;-74
2021/01/24 00:47:25;;;;;;;38.37;30.80;;;1.00;99.90;;;;;;5096263;28;20492;-73
2021/01/24 00:49:52;;;;;;;28.93;26.23;;;1.00;99.90;;;;;;5104700;28;20979;-73
2021/01/24 00:52:18;;;;;;;34.80;28.73;;;0.90;99.90;;;;;;5091270;28;20878;-73
2021/01/24 00:54:44;;;;;;;35.47;26.87;;;0.90;99.90;;;;;;5106596;28;20815;-73
2021/01/24 00:57:10;;;;;;;26.50;24.37;;;0.90;99.90;;;;;;5101442;28;20468;-73
2021/01/24 00:59:37;;;;;;;28.03;25.40;;;0.80;99.90;;;;;;5099300;28;20549;-74
2021/01/24 01:02:03;;;;;;;29.23;26.43;;;0.80;99.90;;;;;;5093969;28;20809;-74
2021/01/24 01:04:29;;;;;;;24.00;22.10;;;0.80;99.90;;;;;;5107674;27;20464;-73
2021/01/24 01:06:58;;;;;;;27.70;25.00;;;0.80;99.90;;;;;;5104742;28;20476;-74
2021/01/24 01:09:25;;;;;;;24.30;22.30;;;0.70;99.90;;;;;;5101293;28;20886;-74
2021/01/24 01:11:52;;;;;;;23.37;21.27;;;0.70;99.90;;;;;;5094455;28;20521;-74
2021/01/24 01:14:18;;;;;;;31.20;23.17;;;0.70;99.90;;;;;;5103926;28;20509;-74
2021/01/24 01:16:45;;;;;;;26.47;24.37;;;0.60;99.90;;;;;;5101302;28;21071;-75
2021/01/24 01:19:11;;;;;;;27.50;24.87;;;0.70;99.90;;;;;;5099219;28;20459;-75
2021/01/24 01:21:38;;;;;;;23.43;21.80;;;0.60;99.90;;;;;;5105687;28;20467;-75
2021/01/24 01:24:06;;;;;;;21.93;20.70;;;0.50;99.90;;;;;;5103302;27;20871;-75
2021/01/24 01:26:33;;;;;;;22.10;20.70;;;0.50;99.90;;;;;;5097970;28;20487;-75
2021/01/24 01:28:59;;;;;;;23.03;21.50;;;0.50;99.90;;;;;;5113226;27;20905;-76
2021/01/24 01:31:26;;;;;;;19.83;18.53;;;0.40;99.90;;;;;;5101793;27;20639;-76
2021/01/24 01:33:52;;;;;;;19.60;18.23;;;0.30;99.90;;;;;;5101192;28;20461;-76
2021/01/24 01:36:19;;;;;;;18.17;17.17;;;0.30;99.90;;;;;;5095733;28;20458;-76
2021/01/24 01:38:46;;;;;;;20.27;18.37;;;0.20;99.90;;;;;;5102964;28;20471;-76
2021/01/24 01:41:13;;;;;;;17.73;16.73;;;0.20;99.90;;;;;;5094268;28;20532;-76
2021/01/24 01:43:40;;;;;;;17.07;16.17;;;0.20;99.90;;;;;;5102803;28;20510;-77
2021/01/24 01:46:06;;;;;;;19.33;17.90;;;0.20;99.90;;;;;;5101419;28;21004;-76
2021/01/24 01:48:33;;;;;;;17.87;16.97;;;0.20;99.90;;;;;;5094804;28;20516;-76
2021/01/24 01:51:00;;;;;;;18.10;17.20;;;0.20;99.90;;;;;;5099090;28;20494;-75
2021/01/24 01:53:27;;;;;;;19.73;18.73;;;0.20;99.90;;;;;;5101596;28;20851;-75
2021/01/24 01:55:55;;;;;;;18.90;17.90;;;0.20;99.90;;;;;;5095249;28;20462;-75
2021/01/24 01:58:22;;;;;;;16.50;15.67;;;0.20;99.90;;;;;;5094048;28;20464;-75
2021/01/24 02:00:50;;;;;;;17.00;16.20;;;0.20;99.90;;;;;;5101255;28;21002;-75
2021/01/24 02:03:29;;;;;;;18.17;17.17;;;0.20;99.90;;;;;;5103082;28;20476;-75
2021/01/24 02:06:05;;;;;;;15.67;14.97;;;0.30;99.90;;;;;;5101543;28;20998;-75
2021/01/24 02:08:41;;;;;;;16.77;15.77;;;0.30;99.90;;;;;;5097549;28;20468;-75
2021/01/24 02:11:14;;;;;;;17.30;16.40;;;0.20;99.90;;;;;;5098523;28;20477;-74
2021/01/24 02:13:54;;;;;;;16.23;15.40;;;0.20;99.90;;;;;;5097114;28;20469;-74
2021/01/24 02:16:21;;;;;;;16.13;15.33;;;0.20;99.90;;;;;;5098629;28;20524;-75
2021/01/24 02:18:50;;;;;;;16.10;15.40;;;0.20;99.90;;;;;;5102296;28;20466;-74
2021/01/24 02:21:28;;;;;;;15.20;14.50;;;0.10;99.90;;;;;;5104618;28;21047;-74
2021/01/24 02:23:56;;;;;;;15.23;14.33;;;0.00;99.90;;;;;;5102357;28;20465;-74
2021/01/24 02:26:31;;;;;;;15.20;14.50;;;0.10;99.90;;;;;;5098906;28;20467;-73
2021/01/24 02:29:10;;;;;;;14.00;13.30;;;0.00;99.90;;;;;;5098474;28;21024;-73
2021/01/24 02:31:38;;;;;;;13.27;12.67;;;0.00;99.90;;;;;;5096929;28;21004;-73
2021/01/24 02:34:07;;;;;;;13.83;13.23;;;0.00;99.90;;;;;;5101830;28;20864;-73
2021/01/24 02:36:35;;;;;;;13.93;12.80;;;0.00;99.90;;;;;;5102825;28;20467;-73
2021/01/24 02:39:04;;;;;;;14.23;13.53;;;0.00;99.90;;;;;;5100603;28;20464;-73
2021/01/24 02:41:31;;;;;;;13.37;12.77;;;0.10;99.90;;;;;;5095471;28;20508;-72
2021/01/24 02:43:58;;;;;;;12.43;11.83;;;0.10;99.90;;;;;;5098990;28;20499;-72
2021/01/24 02:46:26;;;;;;;14.03;13.43;;;0.10;99.90;;;;;;5104023;28;20808;-73
2021/01/24 02:48:55;;;;;;;13.90;13.10;;;0.10;99.90;;;;;;5098611;28;20471;-71
2021/01/24 02:51:22;;;;;;;14.70;13.70;;;0.10;99.90;;;;;;5094018;28;20503;-72
2021/01/24 02:53:50;;;;;;;15.27;14.27;;;0.10;99.90;;;;;;5097676;28;20487;-72
2021/01/24 02:56:17;;;;;;;12.53;11.80;;;0.10;99.90;;;;;;5098198;28;20472;-73
2021/01/24 02:58:44;;;;;;;11.93;11.43;;;0.10;99.90;;;;;;5104094;28;20475;-71
2021/01/24 03:01:11;;;;;;;11.23;10.73;;;0.10;99.90;;;;;;5104445;27;20464;-72
2021/01/24 03:03:38;;;;;;;12.10;11.50;;;0.10;99.90;;;;;;5100937;28;20648;-72
2021/01/24 03:06:07;;;;;;;12.90;12.17;;;0.10;99.90;;;;;;5096743;28;20468;-72
2021/01/24 03:08:33;;;;;;;11.57;10.97;;;0.10;99.90;;;;;;5098603;28;20460;-72
2021/01/24 03:11:00;;;;;;;9.87;9.37;;;0.10;99.90;;;;;;5101623;28;20493;-71
2021/01/24 03:13:37;;;;;;;9.10;8.60;;;0.10;99.90;;;;;;5105511;28;20460;-73
2021/01/24 03:16:04;;;;;;;10.70;10.10;;;0.10;99.90;;;;;;5105128;28;20555;-72
2021/01/24 03:18:36;;;;;;;16.73;9.40;;;0.10;99.90;;;;;;5098967;28;20491;-72
2021/01/24 03:21:04;;;;;;;10.90;10.30;;;0.10;99.90;;;;;;5093526;28;20469;-70
2021/01/24 03:23:34;;;;;;;10.17;9.67;;;0.10;99.90;;;;;;5098855;28;20922;-72
2021/01/24 03:26:01;;;;;;;12.07;11.20;;;0.10;99.90;;;;;;5098935;28;20873;-72
2021/01/24 03:28:28;;;;;;;9.13;8.73;;;0.10;99.90;;;;;;5100391;28;21021;-71
2021/01/24 03:30:54;;;;;;;9.27;8.87;;;0.10;99.90;;;;;;5103658;27;20548;-72
2021/01/24 03:33:21;;;;;;;12.07;11.07;;;0.10;99.90;;;;;;5105157;27;20461;-70
2021/01/24 03:35:47;;;;;;;9.50;9.00;;;0.10;99.90;;;;;;5098247;27;20464;-71
2021/01/24 03:38:14;;;;;;;9.87;9.37;;;0.10;99.90;;;;;;5096995;28;20459;-72
2021/01/24 03:40:41;;;;;;;12.20;11.30;;;0.10;99.90;;;;;;5106093;27;20975;-70
2021/01/24 03:43:07;;;;;;;11.90;11.20;;;0.10;99.90;;;;;;5096882;27;20471;-72
2021/01/24 03:45:34;;;;;;;15.47;14.03;;;0.10;99.90;;;;;;5094796;27;20469;-72
2021/01/24 03:48:00;;;;;;;12.20;11.50;;;0.10;99.90;;;;;;5099465;28;20468;-70
2021/01/24 03:50:27;;;;;;;19.83;14.03;;;0.10;99.90;;;;;;5104426;27;20479;-72
2021/01/24 03:52:53;;;;;;;12.30;11.37;;;0.10;99.90;;;;;;5099720;27;20465;-71
2021/01/24 03:55:20;;;;;;;11.67;10.90;;;0.10;99.90;;;;;;5105899;27;20463;-69
2021/01/24 03:57:47;;;;;;;11.60;10.90;;;0.10;99.90;;;;;;5109267;27;20465;-69
2021/01/24 04:00:14;;;;;;;11.80;11.00;;;0.10;99.90;;;;;;5111319;27;20464;-71
2021/01/24 04:02:41;;;;;;;13.37;12.43;;;0.10;99.90;;;;;;5105687;27;20843;-71
2021/01/24 04:05:09;;;;;;;14.80;13.70;;;0.10;99.90;;;;;;5097433;27;20461;-72
2021/01/24 04:07:35;;;;;;;27.00;19.20;;;0.10;99.90;;;;;;5100484;27;20475;-70
2021/01/24 04:10:02;;;;;;;16.70;15.13;;;0.10;99.90;;;;;;5101825;27;20554;-70
2021/01/24 04:12:28;;;;;;;11.67;11.07;;;0.10;99.90;;;;;;5101330;27;20539;-71
2021/01/24 04:14:55;;;;;;;32.67;20.90;;;0.10;99.90;;;;;;5104363;27;21084;-71
2021/01/24 04:17:21;;;;;;;15.17;14.10;;;0.10;99.90;;;;;;5104132;27;20463;-71
2021/01/24 04:19:48;;;;;;;18.13;16.63;;;0.10;99.90;;;;;;5097222;27;20461;-72
2021/01/24 04:22:14;;;;;;;25.63;20.63;;;0.10;99.90;;;;;;5108036;27;20474;-72
2021/01/24 04:24:40;;;;;;;17.47;16.67;;;0.10;99.90;;;;;;5105418;27;20454;-71
2021/01/24 04:27:06;;;;;;;12.97;12.23;;;0.10;99.90;;;;;;5095293;28;20468;-72
2021/01/24 04:29:34;;;;;;;17.53;16.23;;;0.10;99.90;;;;;;5094362;28;20507;-72
2021/01/24 04:32:01;;;;;;;14.43;13.57;;;0.10;99.90;;;;;;5104444;27;20495;-70
2021/01/24 04:34:27;;;;;;;14.27;13.37;;;0.10;99.90;;;;;;5099009;28;20457;-71
2021/01/24 04:36:54;;;;;;;17.10;15.60;;;0.10;99.90;;;;;;5110964;27;20473;-71
2021/01/24 04:39:21;;;;;;;13.97;13.07;;;0.10;99.90;;;;;;5106815;28;20816;-70
2021/01/24 04:41:48;;;;;;;14.50;13.47;;;0.10;99.90;;;;;;5101568;27;20952;-70
2021/01/24 04:44:15;;;;;;;12.13;11.63;;;0.10;99.90;;;;;;5097177;28;20883;-73
2021/01/24 04:46:43;;;;;;;17.73;16.20;;;0.10;99.90;;;;;;5104700;28;20520;-70
2021/01/24 04:49:11;;;;;;;12.60;12.00;;;0.10;99.90;;;;;;5090732;28;20459;-71
2021/01/24 04:51:40;;;;;;;32.80;20.10;;;0.10;99.90;;;;;;5096731;28;21278;-70
2021/01/24 04:54:07;;;;;;;15.17;13.67;;;0.10;99.90;;;;;;5110424;28;20529;-72
2021/01/24 04:56:37;;;;;;;17.17;15.40;;;0.10;99.90;;;;;;5094312;28;20462;-72
2021/01/24 04:59:04;;;;;;;55.40;25.10;;;0.10;99.90;;;;;;5100217;27;20899;-71
2021/01/24 05:01:32;;;;;;;63.53;28.03;;;0.10;99.90;;;;;;5102273;27;20456;-72
2021/01/24 05:03:59;;;;;;;15.27;14.33;;;0.10;99.90;;;;;;5104667;27;20468;-71
2021/01/24 05:06:27;;;;;;;15.17;14.37;;;0.10;99.90;;;;;;5097325;27;20499;-71
2021/01/24 05:08:59;;;;;;;13.33;12.53;;;0.10;99.90;;;;;;5099566;27;20520;-72
2021/01/24 05:11:25;;;;;;;42.03;21.90;;;0.20;99.90;;;;;;5107263;27;20525;-71
2021/01/24 05:13:52;;;;;;;61.27;28.43;;;0.20;99.90;;;;;;5108202;27;20456;-71
2021/01/24 05:16:21;;;;;;;33.73;22.63;;;0.10;99.90;;;;;;5100846;27;20468;-69
2021/01/24 05:18:56;;;;;;;52.40;24.47;;;0.20;99.90;;;;;;5102122;27;20513;-71
2021/01/24 05:21:22;;;;;;;70.23;44.17;;;0.20;99.90;;;;;;5110838;27;20579;-70
2021/01/24 05:23:50;;;;;;;35.50;24.20;;;0.20;99.90;;;;;;5109304;27;20608;-71
2021/01/24 05:26:20;;;;;;;22.93;20.17;;;0.20;99.90;;;;;;5100377;27;20472;-72
2021/01/24 05:28:48;;;;;;;103.93;35.10;;;0.20;99.90;;;;;;5107206;27;20462;-70
2021/01/24 05:31:15;;;;;;;68.07;30.33;;;0.20;99.90;;;;;;5094012;27;20565;-70
2021/01/24 05:33:43;;;;;;;72.53;29.10;;;0.20;99.90;;;;;;5097628;27;20464;-70
2021/01/24 05:36:10;;;;;;;36.03;23.77;;;0.20;99.90;;;;;;5101478;27;20489;-70
2021/01/24 05:38:37;;;;;;;29.17;24.60;;;0.20;99.90;;;;;;5107226;27;20479;-70
2021/01/24 05:41:08;;;;;;;22.77;20.63;;;0.20;99.90;;;;;;5100447;27;20467;-71
2021/01/24 05:43:36;;;;;;;25.30;21.87;;;0.20;99.90;;;;;;5103415;27;20900;-71
2021/01/24 05:46:02;;;;;;;35.40;24.87;;;0.20;99.90;;;;;;5102767;27;20571;-72
2021/01/24 05:48:29;;;;;;;18.63;17.00;;;0.20;99.90;;;;;;5103276;27;20926;-69
2021/01/24 05:50:56;;;;;;;30.43;24.97;;;0.20;99.90;;;;;;5106307;27;20495;-72
2021/01/24 05:53:23;;;;;;;59.33;29.07;;;0.20;99.90;;;;;;5102539;27;20471;-70
2021/01/24 05:55:50;;;;;;;34.30;23.43;;;0.20;99.90;;;;;;5098182;27;20464;-70
2021/01/24 05:58:20;;;;;;;17.50;16.40;;;0.20;99.90;;;;;;5109475;27;20966;-71
2021/01/24 06:00:47;;;;;;;30.23;21.80;;;0.20;99.90;;;;;;5098639;27;20473;-71
2021/01/24 06:03:15;;;;;;;27.73;20.00;;;0.20;99.90;;;;;;5097886;27;20472;-71
2021/01/24 06:05:42;;;;;;;32.53;22.53;;;0.20;99.90;;;;;;5100329;27;20468;-72
2021/01/24 06:08:09;;;;;;;54.17;28.90;;;0.20;99.90;;;;;;5101990;27;20987;-71
2021/01/24 06:10:36;;;;;;;28.80;22.77;;;0.20;99.90;;;;;;5098288;27;20465;-71
2021/01/24 06:13:04;;;;;;;19.77;17.97;;;0.20;99.90;;;;;;5099895;28;20463;-70
2021/01/24 06:15:32;;;;;;;53.17;26.67;;;0.20;99.90;;;;;;5103607;27;20495;-71
2021/01/24 06:18:00;;;;;;;53.90;27.10;;;0.20;99.90;;;;;;5107267;27;20940;-71
2021/01/24 06:20:34;;;;;;;26.30;21.33;;;0.30;99.90;;;;;;5099156;28;20483;-72
2021/01/24 06:23:04;;;;;;;54.70;26.97;;;0.20;99.90;;;;;;5104267;27;20966;-72
2021/01/24 06:25:33;;;;;;;24.30;21.50;;;0.20;99.90;;;;;;5097153;28;20486;-72
2021/01/24 06:28:07;;;;;;;39.97;25.30;;;0.20;99.90;;;;;;5106259;27;20462;-72
2021/01/24 06:30:35;;;;;;;28.33;24.17;;;0.30;99.90;;;;;;5100675;27;20598;-71
2021/01/24 06:33:23;;;;;;;24.13;21.87;;;0.30;99.90;;;;;;5106922;27;21018;-71
2021/01/24 06:35:52;;;;;;;31.03;28.03;;;0.30;99.90;;;;;;5102030;27;20457;-71
2021/01/24 06:38:31;;;;;;;35.27;28.77;;;0.30;99.90;;;;;;5091064;28;20840;-72
2021/01/24 06:40:59;;;;;;;31.13;27.13;;;0.30;99.90;;;;;;5098682;28;20469;-71
2021/01/24 06:43:41;;;;;;;31.07;28.07;;;0.30;99.90;;;;;;5102600;27;20467;-71
2021/01/24 06:46:26;;;;;;;42.07;31.80;;;0.30;99.90;;;;;;5106937;27;20455;-71
2021/01/24 06:48:54;;;;;;;42.60;31.07;;;0.30;99.90;;;;;;5098760;28;20987;-72
2021/01/24 06:51:35;;;;;;;32.03;28.73;;;0.30;99.90;;;;;;5103369;27;20482;-72
2021/01/24 06:54:03;;;;;;;26.50;24.43;;;0.30;99.90;;;;;;5103245;27;21218;-71
2021/01/24 06:56:40;;;;;;;25.97;23.67;;;0.30;99.90;;;;;;5097206;27;20977;-72
2021/01/24 06:59:07;;;;;;;28.20;25.20;;;0.30;99.90;;;;;;5098928;27;20527;-72
2021/01/24 07:01:36;;;;;;;32.60;25.97;;;0.30;99.90;;;;;;5101527;27;20484;-72
2021/01/24 07:04:42;;;;;;;43.90;26.13;;;0.30;99.90;;;;;;5099137;27;20458;-72
2021/01/24 07:07:36;;;;;;;42.27;28.90;;;0.30;99.90;;;;;;5101326;27;20778;-73
2021/01/24 07:10:06;;;;;;;39.87;27.97;;;0.40;99.90;;;;;;5100931;27;20997;-73
2021/01/24 07:12:40;;;;;;;42.37;28.20;;;0.40;99.90;;;;;;5106990;27;20506;-73
2021/01/24 07:15:09;;;;;;;36.10;24.80;;;0.40;99.90;;;;;;5109773;27;20502;-73
2021/01/24 07:17:36;;;;;;;37.73;28.40;;;0.40;99.90;;;;;;5099775;28;21119;-73
2021/01/24 07:20:05;;;;;;;34.47;22.57;;;0.40;99.90;;;;;;5102681;27;20464;-73
2021/01/24 07:22:31;;;;;;;36.60;27.03;;;0.40;99.90;;;;;;5092689;27;20457;-73
2021/01/24 07:24:58;;;;;;;35.20;28.37;;;0.40;99.90;;;;;;5104316;27;20466;-73
2021/01/24 07:27:28;;;;;;;25.53;22.83;;;0.40;99.90;;;;;;5108943;27;20878;-73
2021/01/24 07:29:54;;;;;;;33.97;27.27;;;0.40;99.90;;;;;;5101767;27;20483;-73
2021/01/24 07:32:23;;;;;;;54.60;31.17;;;0.40;99.90;;;;;;5108462;27;20495;-73
2021/01/24 07:34:52;;;;;;;27.73;24.87;;;0.40;99.90;;;;;;5102829;27;20477;-73
2021/01/24 07:37:19;;;;;;;39.67;29.07;;;0.40;99.90;;;;;;5094531;27;20967;-73
2021/01/24 07:39:47;;;;;;;30.17;26.97;;;0.40;99.90;;;;;;5099203;27;20461;-73
2021/01/24 07:42:15;;;;;;;40.10;31.13;;;0.40;99.90;;;;;;5105282;27;20486;-73
2021/01/24 07:44:42;;;;;;;49.83;30.10;;;0.40;99.90;;;;;;5099816;27;20460;-73
2021/01/24 07:47:09;;;;;;;39.60;28.03;;;0.40;99.90;;;;;;5101234;27;20464;-74
2021/01/24 07:49:36;;;;;;;30.53;24.80;;;0.40;99.90;;;;;;5109691;27;20469;-75
2021/01/24 07:52:04;;;;;;;54.73;29.80;;;0.40;99.90;;;;;;5103714;27;21155;-74
2021/01/24 07:54:31;;;;;;;53.10;29.30;;;0.40;99.90;;;;;;5103856;27;20467;-74
2021/01/24 07:56:59;;;;;;;38.77;25.13;;;0.40;99.90;;;;;;5093464;27;20890;-74
2021/01/24 07:59:25;;;;;;;25.87;21.63;;;0.50;99.90;;;;;;5100062;27;20498;-75
2021/01/24 08:01:53;;;;;;;27.37;22.17;;;0.40;99.90;;;;;;5095491;27;20525;-74
2021/01/24 08:04:22;;;;;;;45.10;28.10;;;0.50;99.90;;;;;;5101613;27;20475;-74
2021/01/24 08:06:49;;;;;;;31.17;27.00;;;0.50;99.90;;;;;;5102503;27;20575;-75
2021/01/24 08:09:17;;;;;;;29.80;26.60;;;0.40;99.90;;;;;;5100894;27;20464;-74
2021/01/24 08:11:44;;;;;;;36.23;26.40;;;0.50;99.90;;;;;;5096645;27;20493;-74
2021/01/24 08:14:12;;;;;;;49.37;33.67;;;0.50;99.90;;;;;;5105543;27;20451;-76
2021/01/24 08:16:41;;;;;;;45.70;32.83;;;0.50;99.90;;;;;;5106979;27;20858;-74
2021/01/24 08:19:09;;;;;;;28.47;25.63;;;0.50;99.90;;;;;;5100633;27;20565;-75
2021/01/24 08:21:37;;;;;;;40.53;25.33;;;0.50;99.90;;;;;;5096634;28;20966;-75
2021/01/24 08:24:06;;;;;;;24.30;21.20;;;0.50;99.90;;;;;;5107923;27;20462;-76
2021/01/24 08:26:34;;;;;;;57.63;28.67;;;0.50;99.90;;;;;;5101336;27;20469;-74
2021/01/24 08:29:01;;;;;;;40.73;24.67;;;0.50;99.90;;;;;;5092642;28;20462;-74
2021/01/24 08:31:28;;;;;;;34.40;25.43;;;0.50;99.90;;;;;;5094377;28;20484;-73
2021/01/24 08:33:55;;;;;;;53.40;26.57;;;0.50;99.90;;;;;;5092614;28;21063;-75
2021/01/24 08:36:24;;;;;;;36.80;24.77;;;0.50;99.90;;;;;;5090756;28;20474;-76
2021/01/24 08:38:55;;;;;;;25.37;22.97;;;0.50;99.90;;;;;;5092787;28;20511;-77
2021/01/24 08:41:28;;;;;;;25.97;23.20;;;0.50;99.90;;;;;;5095672;28;20920;-76
2021/01/24 08:44:05;;;;;;;24.63;22.17;;;0.50;99.90;;;;;;5092812;28;20470;-74
2021/01/24 08:46:37;;;;;;;27.77;24.00;;;0.50;99.90;;;;;;5092582;28;20982;-75
2021/01/24 08:49:09;;;;;;;41.23;26.90;;;0.50;99.90;;;;;;5094881;28;20467;-74
2021/01/24 08:51:47;;;;;;;35.80;25.03;;;0.50;99.90;;;;;;5096145;28;20504;-74
2021/01/24 08:54:30;;;;;;;39.40;26.50;;;0.50;99.90;;;;;;5103305;28;20457;-76
2021/01/24 08:57:11;;;;;;;31.70;25.20;;;0.60;99.90;;;;;;5109467;28;20973;-75
2021/01/24 08:59:40;;;;;;;39.17;25.43;;;0.60;99.90;;;;;;5086809;28;20454;-76
2021/01/24 09:02:07;;;;;;;34.87;25.00;;;0.60;99.90;;;;;;5087587;28;20523;-74
2021/01/24 09:04:35;;;;;;;37.47;26.40;;;0.60;99.90;;;;;;5087834;28;20979;-74
2021/01/24 09:07:07;;;;;;;38.07;27.00;;;0.60;99.90;;;;;;5092901;28;20462;-76
2021/01/24 09:09:36;;;;;;;41.10;25.77;;;0.60;99.90;;;;;;5093803;28;20985;-74
2021/01/24 09:12:03;;;;;;;36.73;26.67;;;0.60;99.90;;;;;;5102124;27;20494;-73
2021/01/24 09:14:30;;;;;;;41.67;28.17;;;0.60;99.90;;;;;;5104482;28;20469;-73
2021/01/24 09:17:07;;;;;;;31.70;25.77;;;0.60;99.90;;;;;;5093716;28;20465;-74
2021/01/24 09:19:34;;;;;;;27.27;24.57;;;0.60;99.90;;;;;;5104390;28;20553;-74
2021/01/24 09:22:02;;;;;;;38.70;30.20;;;0.60;99.90;;;;;;5099643;28;20492;-74
2021/01/24 09:24:29;;;;;;;32.20;25.67;;;0.60;99.90;;;;;;5098891;28;20461;-74
2021/01/24 09:26:55;;;;;;;37.70;25.83;;;0.60;99.90;;;;;;5095691;28;20461;-74
2021/01/24 09:29:22;;;;;;;29.73;24.57;;;0.60;99.90;;;;;;5098087;28;20484;-73
2021/01/24 09:31:49;;;;;;;25.63;22.77;;;0.60;99.90;;;;;;5095770;27;20494;-73
2021/01/24 09:34:16;;;;;;;36.47;25.43;;;0.70;99.90;;;;;;5098311;28;20549;-73
2021/01/24 09:36:43;;;;;;;33.67;21.50;;;0.70;99.90;;;;;;5109547;28;20857;-73
2021/01/24 09:39:09;;;;;;;37.17;21.20;;;0.70;99.90;;;;;;5104424;27;20453;-73
2021/01/24 09:41:36;;;;;;;23.20;18.90;;;0.70;99.90;;;;;;5099038;28;20837;-73
2021/01/24 09:44:04;;;;;;;34.13;19.13;;;0.70;99.90;;;;;;5104971;28;20457;-74
2021/01/24 09:46:31;;;;;;;36.03;19.83;;;0.70;99.90;;;;;;5098135;28;20464;-73
2021/01/24 09:48:58;;;;;;;26.57;18.60;;;0.80;99.90;;;;;;5106227;27;20469;-73
2021/01/24 09:51:26;;;;;;;31.80;17.97;;;0.80;99.90;;;;;;5098628;27;21067;-73
2021/01/24 09:53:56;;;;;;;35.70;19.77;;;0.80;99.90;;;;;;5091231;27;20463;-73
2021/01/24 09:56:24;;;;;;;33.83;20.20;;;0.80;99.90;;;;;;5106396;27;20566;-73
2021/01/24 09:58:50;;;;;;;46.67;22.60;;;0.80;99.90;;;;;;5095684;27;20472;-73
2021/01/24 10:01:17;;;;;;;52.13;25.47;;;0.80;99.90;;;;;;5101324;27;20465;-73
2021/01/24 10:03:45;;;;;;;51.03;26.07;;;0.80;99.90;;;;;;5098680;27;20785;-73
2021/01/24 10:06:11;;;;;;;67.20;27.80;;;0.90;99.90;;;;;;5095965;27;21030;-73
2021/01/24 10:08:38;;;;;;;48.20;24.80;;;0.90;99.90;;;;;;5099541;27;20462;-73
2021/01/24 10:11:05;;;;;;;52.27;26.93;;;0.90;99.90;;;;;;5097149;27;20491;-73
2021/01/24 10:13:32;;;;;;;55.30;26.80;;;0.90;99.90;;;;;;5098443;27;20560;-73
2021/01/24 10:15:58;;;;;;;51.53;27.13;;;0.90;99.90;;;;;;5096835;27;20462;-73
2021/01/24 10:18:25;;;;;;;61.93;27.03;;;0.90;99.90;;;;;;5101920;27;20464;-73
2021/01/24 10:20:51;;;;;;;68.33;29.50;;;0.90;99.90;;;;;;5105343;27;20497;-72
2021/01/24 10:23:21;;;;;;;57.80;28.43;;;1.00;99.90;;;;;;5099851;27;20515;-72
2021/01/24 10:25:49;;;;;;;64.57;29.33;;;1.00;99.90;;;;;;5096922;27;20561;-72
2021/01/24 10:28:16;;;;;;;61.67;28.97;;;1.10;99.90;;;;;;5105215;27;22152;-72
2021/01/24 10:30:42;;;;;;;65.53;26.33;;;1.10;99.90;;;;;;5097493;27;21011;-72
2021/01/24 10:33:09;;;;;;;57.97;28.50;;;1.10;99.90;;;;;;5096061;27;20855;-72
2021/01/24 10:35:36;;;;;;;65.03;30.07;;;1.10;99.90;;;;;;5101456;27;20822;-73
2021/01/24 10:38:02;;;;;;;70.77;28.17;;;1.10;99.90;;;;;;5100477;27;20521;-72
2021/01/24 10:40:30;;;;;;;61.13;27.43;;;1.10;99.90;;;;;;5098654;28;20972;-73
2021/01/24 10:42:58;;;;;;;63.73;26.77;;;1.10;99.90;;;;;;5109881;27;20546;-73
2021/01/24 10:45:25;;;;;;;57.33;27.57;;;1.10;99.90;;;;;;5103353;27;20464;-72
2021/01/24 10:47:52;;;;;;;60.17;29.50;;;1.10;99.90;;;;;;5105164;27;20483;-72
2021/01/24 10:50:20;;;;;;;54.13;27.80;;;1.20;99.90;;;;;;5102437;27;20861;-72
2021/01/24 10:52:46;;;;;;;67.80;27.17;;;1.20;99.90;;;;;;5098312;27;20489;-72
2021/01/24 10:55:13;;;;;;;59.20;28.40;;;1.20;99.90;;;;;;5095763;27;20463;-72
2021/01/24 10:57:39;;;;;;;71.33;28.73;;;1.20;99.90;;;;;;5096580;28;20481;-73
2021/01/24 11:00:09;;;;;;;65.37;27.70;;;1.20;99.90;;;;;;5105181;27;20464;-72
2021/01/24 11:02:35;;;;;;;48.87;25.80;;;1.20;99.90;;;;;;5105624;27;20463;-72
2021/01/24 11:05:03;;;;;;;41.93;25.50;;;1.20;99.90;;;;;;5109198;27;20639;-72
2021/01/24 11:07:30;;;;;;;68.07;27.27;;;1.20;99.90;;;;;;5098200;28;20462;-72
2021/01/24 11:09:56;;;;;;;45.33;23.93;;;1.20;99.90;;;;;;5097904;27;20462;-72
2021/01/24 11:12:24;;;;;;;38.07;24.73;;;1.40;99.90;;;;;;5108297;27;20484;-73
2021/01/24 11:14:51;;;;;;;34.50;23.67;;;1.40;99.90;;;;;;5111606;27;20469;-74
2021/01/24 11:17:18;;;;;;;41.97;24.03;;;1.40;99.90;;;;;;5112304;27;20876;-73
2021/01/24 11:19:45;;;;;;;50.17;25.90;;;1.50;99.90;;;;;;5102974;27;20479;-73
2021/01/24 11:22:12;;;;;;;35.27;26.00;;;1.60;99.90;;;;;;5101734;27;20976;-72
2021/01/24 11:24:38;;;;;;;42.73;23.40;;;1.50;99.90;;;;;;5105099;27;20469;-74
2021/01/24 11:27:07;;;;;;;45.67;24.53;;;1.50;99.90;;;;;;5105746;27;20500;-73
2021/01/24 11:29:33;;;;;;;34.80;24.07;;;1.50;99.90;;;;;;5107326;27;20474;-72
2021/01/24 11:31:59;;;;;;;40.23;22.17;;;1.60;99.90;;;;;;5103541;27;20489;-72
2021/01/24 11:34:27;;;;;;;36.23;20.60;;;1.60;99.90;;;;;;5095854;27;20474;-72
2021/01/24 11:36:53;;;;;;;33.87;23.00;;;1.70;99.90;;;;;;5092161;27;20461;-73
2021/01/24 11:39:21;;;;;;;38.60;21.23;;;1.70;99.90;;;;;;5100709;27;20503;-72
2021/01/24 11:41:47;;;;;;;33.90;21.80;;;1.80;99.90;;;;;;5098055;27;20461;-72
2021/01/24 11:44:13;;;;;;;33.17;21.60;;;2.00;99.90;;;;;;5103577;27;20970;-72
2021/01/24 11:46:40;;;;;;;28.37;21.50;;;2.20;99.90;;;;;;5103506;27;20966;-72
2021/01/24 11:49:06;;;;;;;29.07;20.40;;;2.30;99.90;;;;;;5103603;27;20449;-72
2021/01/24 11:51:35;;;;;;;32.27;19.00;;;2.30;99.90;;;;;;5097783;28;20866;-73
2021/01/24 11:54:01;;;;;;;22.17;18.87;;;2.40;99.90;;;;;;5108009;27;20811;-72
2021/01/24 11:56:28;;;;;;;27.10;17.63;;;2.60;99.90;;;;;;5096516;27;20810;-73
2021/01/24 11:58:54;;;;;;;22.73;16.60;;;2.70;99.90;;;;;;5096182;27;20468;-72
2021/01/24 12:01:21;;;;;;;18.43;14.43;;;2.70;99.90;;;;;;5097441;27;20488;-73
2021/01/24 12:03:47;;;;;;;20.37;16.67;;;2.90;99.90;;;;;;5100783;28;21970;-73
2021/01/24 12:06:13;;;;;;;21.20;16.40;;;3.00;99.90;;;;;;5112594;27;20458;-73
2021/01/24 12:08:40;;;;;;;17.83;15.80;;;3.20;99.90;;;;;;5104136;27;20922;-73
2021/01/24 12:11:08;;;;;;;24.33;15.10;;;3.30;99.90;;;;;;5092236;27;20454;-73
2021/01/24 12:13:35;;;;;;;19.27;15.30;;;3.40;99.90;;;;;;5094574;28;20565;-74
2021/01/24 12:16:02;;;;;;;16.20;14.00;;;3.70;99.90;;;;;;5097127;27;20457;-73
2021/01/24 12:18:29;;;;;;;17.40;15.50;;;3.70;99.90;;;;;;5095277;28;20515;-72
2021/01/24 12:20:56;;;;;;;16.17;14.57;;;3.90;99.90;;;;;;5103070;27;20453;-72
2021/01/24 12:23:23;;;;;;;23.00;15.20;;;4.10;99.90;;;;;;5097506;28;20462;-72
2021/01/24 12:25:50;;;;;;;18.50;16.07;;;4.20;99.90;;;;;;5096322;27;20473;-73
2021/01/24 12:28:17;;;;;;;17.33;15.70;;;4.40;99.90;;;;;;5099843;28;20454;-73
2021/01/24 12:30:43;;;;;;;19.00;17.10;;;4.40;99.90;;;;;;5095551;28;20485;-73
2021/01/24 12:33:12;;;;;;;18.67;16.83;;;4.50;99.90;;;;;;5098723;27;20894;-73
2021/01/24 12:35:39;;;;;;;19.67;17.93;;;4.40;99.90;;;;;;5106712;28;20466;-73
2021/01/24 12:38:05;;;;;;;21.27;18.80;;;4.30;99.90;;;;;;5099002;28;20948;-73
2021/01/24 12:40:32;;;;;;;21.00;19.10;;;4.40;99.90;;;;;;5093754;28;20975;-73
2021/01/24 12:43:00;;;;;;;22.37;20.43;;;4.50;99.90;;;;;;5108820;28;20458;-73